Time;durP1;ratioP1;P1;durP2;ratioP2;P2;SDS_P1;SDS_P2;PMS_P1;PMS_P2;Temp;Humidity;BMP_temperature;BMP_pressure;BME280_temperature;BME280_humidity;BME280_pressure;Samples;Min_cycle;Max_cycle;Signal;HPM_P1;HPM_P2
2022/08/11 00:00:07;;;;;;;2.65;2.55;;;19.00;99.90;;;;;;5046957;28;20038;-72
2022/08/11 00:02:51;;;;;;;0.00;0.00;;;19.20;99.90;;;;;;5049754;28;20041;-72
2022/08/11 00:05:20;;;;;;;0.00;0.00;;;19.00;99.90;;;;;;5051815;28;20499;-72
2022/08/11 00:07:56;;;;;;;0.00;0.00;;;18.90;99.90;;;;;;5051991;28;20144;-72
2022/08/11 00:10:27;;;;;;;0.00;0.00;;;18.90;99.90;;;;;;5050524;28;20433;-73
2022/08/11 00:12:59;;;;;;;0.00;0.00;;;19.10;99.90;;;;;;5056208;28;20075;-72
2022/08/11 00:15:38;;;;;;;0.08;0.08;;;19.20;99.90;;;;;;5055544;28;20094;-71
2022/08/11 00:18:04;;;;;;;0.00;0.00;;;19.00;99.90;;;;;;5055456;28;20033;-72
2022/08/11 00:20:33;;;;;;;0.00;0.00;;;19.10;99.90;;;;;;5055056;28;20055;-72
2022/08/11 00:23:06;;;;;;;0.00;0.00;;;19.00;99.90;;;;;;5055793;28;20037;-72
2022/08/11 00:25:42;;;;;;;1.10;1.10;;;19.00;99.90;;;;;;5056122;28;20083;-72
2022/08/11 00:28:31;;;;;;;0.00;0.00;;;19.20;99.90;;;;;;5055484;28;20040;-73
2022/08/11 00:31:03;;;;;;;0.00;0.00;;;19.30;99.90;;;;;;5055518;28;20119;-73
2022/08/11 00:33:39;;;;;;;3.05;2.95;;;19.30;99.90;;;;;;5041495;28;20480;-72
2022/08/11 00:36:07;;;;;;;0.00;0.00;;;19.20;99.90;;;;;;5054769;28;20076;-72
2022/08/11 00:38:38;;;;;;;0.00;0.00;;;19.30;99.90;;;;;;5054985;28;20100;-72
2022/08/11 00:41:10;;;;;;;0.00;0.00;;;19.40;99.90;;;;;;5054837;28;20376;-72
2022/08/11 00:43:50;;;;;;;0.05;0.05;;;19.50;99.90;;;;;;5038599;28;20084;-73
2022/08/11 00:46:34;;;;;;;0.00;0.00;;;19.60;99.90;;;;;;5049705;28;20083;-72
2022/08/11 00:49:06;;;;;;;0.08;0.08;;;19.50;99.90;;;;;;5033244;28;20592;-72
2022/08/11 00:52:21;;;;;;;0.00;0.00;;;19.80;99.90;;;;;;5043232;28;20030;-72
2022/08/11 00:55:18;;;;;;;0.13;0.13;;;20.00;99.90;;;;;;5034356;28;20040;-73
2022/08/11 00:58:06;;;;;;;0.00;0.00;;;20.50;99.90;;;;;;5049629;28;20537;-73
2022/08/11 01:00:48;;;;;;;0.00;0.00;;;20.90;99.90;;;;;;5048282;28;20508;-73
2022/08/11 01:03:35;;;;;;;0.05;0.05;;;21.40;99.90;;;;;;5051208;28;20041;-72
2022/08/11 01:06:02;;;;;;;0.00;0.00;;;22.00;99.90;;;;;;5052902;28;20033;-72
2022/08/11 01:09:08;;;;;;;0.00;0.00;;;22.60;99.90;;;;;;5044605;28;20029;-73
2022/08/11 01:12:10;;;;;;;1.45;1.45;;;23.00;99.90;;;;;;5039746;28;20119;-74
2022/08/11 01:14:51;;;;;;;0.68;0.68;;;23.40;98.80;;;;;;5039008;28;20070;-74
2022/08/11 01:18:09;;;;;;;0.00;0.00;;;23.70;94.10;;;;;;5030142;28;20029;-72
2022/08/11 01:20:58;;;;;;;4.90;4.43;;;24.00;91.70;;;;;;4987095;28;20273;-74
2022/08/11 01:24:06;;;;;;;0.00;0.00;;;24.10;89.40;;;;;;5030537;28;20407;-73
2022/08/11 01:27:03;;;;;;;0.00;0.00;;;24.00;85.80;;;;;;4984760;28;20365;-73
2022/08/11 01:30:06;;;;;;;0.03;0.03;;;24.00;87.50;;;;;;5033101;28;20503;-73
2022/08/11 01:33:09;;;;;;;0.00;0.00;;;24.20;82.50;;;;;;5028953;28;20029;-74
2022/08/11 01:36:06;;;;;;;0.00;0.00;;;24.30;82.80;;;;;;5023502;28;20061;-73
2022/08/11 01:39:01;;;;;;;0.73;0.73;;;24.20;90.00;;;;;;5029544;28;20112;-73
2022/08/11 01:45:11;;;;;;;0.00;0.00;;;23.60;93.20;;;;;;5029061;28;20033;-72
2022/08/11 01:48:21;;;;;;;0.47;0.47;;;22.70;95.30;;;;;;5029931;28;20040;-73
2022/08/11 01:51:00;;;;;;;1.17;1.17;;;22.60;98.00;;;;;;5032736;28;20108;-73
2022/08/11 01:53:50;;;;;;;0.13;0.13;;;22.80;95.00;;;;;;5031721;28;20036;-73
2022/08/11 01:56:43;;;;;;;1.25;1.25;;;23.40;91.90;;;;;;5031527;28;20026;-73
2022/08/11 01:59:16;;;;;;;10.30;2.92;;;23.30;84.50;;;;;;5024959;28;20029;-74
2022/08/11 02:02:04;;;;;;;0.00;0.00;;;23.40;87.00;;;;;;5029962;28;20172;-72
2022/08/11 02:04:48;;;;;;;0.00;0.00;;;23.70;85.10;;;;;;5008482;28;21362;-72
2022/08/11 02:07:48;;;;;;;0.00;0.00;;;23.50;84.40;;;;;;5027942;28;20075;-72
2022/08/11 02:13:23;;;;;;;0.00;0.00;;;23.30;83.90;;;;;;5026334;28;20036;-72
2022/08/11 02:16:03;;;;;;;0.00;0.00;;;23.30;83.70;;;;;;5037956;28;20498;-73
2022/08/11 02:25:03;;;;;;;0.00;0.00;;;24.90;75.80;;;;;;5048660;28;20099;-73
2022/08/11 02:27:41;;;;;;;0.00;0.00;;;26.00;65.10;;;;;;5045397;28;20025;-74
2022/08/11 02:30:16;;;;;;;0.00;0.00;;;27.00;63.30;;;;;;5045378;28;20985;-73
2022/08/11 02:33:22;;;;;;;0.55;0.55;;;28.00;56.30;;;;;;5046971;28;20036;-74
2022/08/11 02:36:09;;;;;;;0.00;0.00;;;28.60;51.60;;;;;;5047778;28;20479;-73
2022/08/11 02:38:47;;;;;;;0.30;0.30;;;28.50;49.00;;;;;;5049979;28;20111;-73
2022/08/11 02:44:37;;;;;;;0.00;0.00;;;28.20;49.30;;;;;;5046896;28;20027;-73
2022/08/11 02:47:26;;;;;;;0.45;0.43;;;29.10;48.40;;;;;;5046825;28;20128;-73
2022/08/11 02:50:13;;;;;;;0.00;0.00;;;29.50;44.40;;;;;;5047781;28;20072;-74
2022/08/11 02:53:03;;;;;;;1.13;1.13;;;29.70;44.80;;;;;;5049053;28;20511;-74
2022/08/11 02:55:46;;;;;;;0.00;0.00;;;30.40;43.30;;;;;;5047509;28;20045;-73
2022/08/11 02:58:26;;;;;;;0.65;0.65;;;30.90;42.20;;;;;;5049210;28;20067;-73
2022/08/11 03:01:18;;;;;;;0.90;0.70;;;31.10;42.00;;;;;;5030906;28;20434;-74
2022/08/11 03:04:03;;;;;;;0.00;0.00;;;30.20;43.10;;;;;;5005231;28;20087;-74
2022/08/11 03:06:50;;;;;;;0.08;0.08;;;29.00;44.70;;;;;;5043876;28;20037;-74
2022/08/11 03:09:25;;;;;;;1.33;0.95;;;28.30;46.00;;;;;;5041174;28;20029;-73
2022/08/11 03:18:02;;;;;;;0.20;0.20;;;29.40;45.30;;;;;;5023754;28;20096;-73
2022/08/11 03:20:43;;;;;;;0.25;0.20;;;27.70;45.80;;;;;;5028850;28;20044;-73
2022/08/11 03:23:31;;;;;;;0.03;0.03;;;27.70;46.90;;;;;;5021078;28;20176;-73
2022/08/11 03:26:28;;;;;;;0.38;0.38;;;28.50;45.90;;;;;;5017625;28;20037;-74
2022/08/11 03:29:19;;;;;;;1.67;1.58;;;28.60;45.00;;;;;;5018571;28;20060;-74
2022/08/11 03:31:56;;;;;;;0.10;0.10;;;28.10;45.40;;;;;;5018479;28;20078;-74
2022/08/11 03:34:25;;;;;;;0.00;0.00;;;27.00;47.20;;;;;;5019265;28;20045;-74
2022/08/11 03:43:21;;;;;;;0.30;0.30;;;26.70;48.70;;;;;;4993629;28;20041;-74
2022/08/11 03:46:08;;;;;;;0.00;0.00;;;27.00;49.00;;;;;;5018444;28;20048;-75
2022/08/11 03:49:19;;;;;;;0.75;0.75;;;27.10;48.50;;;;;;5012384;28;20441;-75
2022/08/11 03:52:26;;;;;;;0.22;0.22;;;27.10;48.50;;;;;;5013271;28;20392;-73
2022/08/11 03:55:13;;;;;;;6.20;2.78;;;27.00;48.50;;;;;;4986933;28;20548;-73
2022/08/11 03:57:58;;;;;;;0.00;0.00;;;26.20;51.10;;;;;;5027555;28;20088;-72
2022/08/11 04:00:43;;;;;;;0.32;0.32;;;25.90;52.60;;;;;;5030472;28;20331;-74
2022/08/11 04:03:42;;;;;;;0.13;0.13;;;25.60;52.30;;;;;;5024723;28;20602;-73
2022/08/11 04:06:20;;;;;;;0.25;0.25;;;25.50;53.20;;;;;;5020570;28;20061;-73
2022/08/11 04:09:12;;;;;;;0.20;0.17;;;25.90;52.30;;;;;;5029508;28;20040;-73
2022/08/11 04:11:43;;;;;;;0.00;0.00;;;25.70;52.50;;;;;;5028111;28;20069;-74
2022/08/11 04:17:47;;;;;;;0.40;0.40;;;26.00;52.40;;;;;;5027897;28;20563;-73
2022/08/11 04:20:35;;;;;;;0.00;0.00;;;26.10;52.70;;;;;;5024649;28;20108;-73
2022/08/11 04:23:10;;;;;;;0.00;0.00;;;26.30;50.80;;;;;;5024423;28;20092;-73
2022/08/11 04:26:07;;;;;;;0.00;0.00;;;26.30;50.70;;;;;;5029429;28;20500;-73
2022/08/11 04:28:55;;;;;;;2.13;2.03;;;26.30;50.10;;;;;;5023757;28;20038;-74
2022/08/11 04:31:56;;;;;;;0.10;0.10;;;26.20;50.00;;;;;;5026452;28;20482;-73
2022/08/11 04:34:44;;;;;;;0.05;0.05;;;26.40;50.80;;;;;;5004743;28;20041;-73
2022/08/11 04:37:40;;;;;;;0.43;0.43;;;26.50;49.90;;;;;;5026214;28;20128;-74
2022/08/11 04:40:24;;;;;;;0.75;0.68;;;26.30;50.10;;;;;;5028562;28;20041;-74
2022/08/11 04:43:28;;;;;;;2.08;0.65;;;26.00;53.50;;;;;;5019776;28;20037;-73
2022/08/11 04:46:19;;;;;;;0.45;0.45;;;26.00;54.20;;;;;;5021387;28;20040;-73
2022/08/11 05:01:42;;;;;;;2.53;1.10;;;26.30;52.50;;;;;;5025739;28;20044;-74
2022/08/11 05:07:29;;;;;;;0.90;0.90;;;26.00;52.90;;;;;;5025262;28;20064;-74
2022/08/11 05:10:06;;;;;;;0.57;0.20;;;26.30;52.80;;;;;;5031845;28;20033;-74
2022/08/11 05:36:56;;;;;;;0.00;0.00;;;26.80;54.40;;;;;;5045152;28;20044;-74
2022/08/11 05:56:49;;;;;;;0.43;0.43;;;26.80;57.20;;;;;;5042564;28;20028;-74
2022/08/11 05:59:19;;;;;;;1.88;1.38;;;26.50;57.40;;;;;;5050533;28;20114;-74
2022/08/11 06:01:46;;;;;;;0.00;0.00;;;26.60;57.90;;;;;;5050828;28;20025;-76
2022/08/11 06:04:22;;;;;;;0.10;0.10;;;26.50;57.10;;;;;;5046472;28;20567;-73
2022/08/11 06:07:08;;;;;;;0.10;0.10;;;26.80;56.90;;;;;;5045143;28;20112;-73
2022/08/11 06:10:01;;;;;;;0.00;0.00;;;27.00;57.30;;;;;;5036656;28;20051;-74
2022/08/11 06:12:31;;;;;;;0.73;0.60;;;27.10;57.90;;;;;;5043139;28;20033;-72
2022/08/11 06:15:01;;;;;;;2.78;2.13;;;27.00;57.90;;;;;;5046013;28;20069;-73
2022/08/11 06:17:32;;;;;;;0.00;0.00;;;26.80;58.10;;;;;;5036841;28;20060;-73
2022/08/11 06:20:11;;;;;;;0.10;0.10;;;26.90;58.30;;;;;;5045369;28;20039;-72
2022/08/11 06:22:40;;;;;;;3.40;2.28;;;26.90;58.90;;;;;;5040800;28;20483;-73
2022/08/11 06:25:09;;;;;;;0.00;0.00;;;27.00;58.40;;;;;;5044218;28;20037;-73
2022/08/11 06:27:38;;;;;;;2.55;1.08;;;27.00;58.90;;;;;;5034314;28;20033;-74
2022/08/11 06:30:12;;;;;;;17.83;0.68;;;27.10;58.90;;;;;;5031777;28;20039;-73
2022/08/11 06:32:42;;;;;;;2.42;1.58;;;26.90;58.70;;;;;;5041605;28;20040;-75
2022/08/11 06:35:38;;;;;;;0.00;0.00;;;26.80;58.30;;;;;;5034473;28;20464;-76
2022/08/11 06:38:09;;;;;;;0.40;0.32;;;27.00;58.80;;;;;;5036330;28;20550;-76
2022/08/11 06:43:46;;;;;;;0.15;0.15;;;27.10;58.80;;;;;;5031665;28;20537;-76
2022/08/11 06:46:17;;;;;;;1.42;0.80;;;26.80;59.70;;;;;;5036762;28;20149;-73
2022/08/11 06:48:44;;;;;;;1.65;1.55;;;26.80;59.70;;;;;;5036279;28;20037;-73
2022/08/11 06:51:11;;;;;;;0.63;0.63;;;26.50;60.00;;;;;;5032908;28;20044;-74
2022/08/11 06:53:51;;;;;;;0.13;0.13;;;26.60;60.70;;;;;;5038466;28;20025;-73
2022/08/11 07:02:27;;;;;;;0.00;0.00;;;27.10;59.10;;;;;;5041023;28;20071;-74
2022/08/11 07:05:07;;;;;;;0.03;0.03;;;27.20;60.50;;;;;;5039046;28;20030;-74
2022/08/11 07:16:59;;;;;;;0.03;0.03;;;27.00;57.50;;;;;;5036282;28;20051;-75
2022/08/11 07:31:02;;;;;;;0.00;0.00;;;27.30;56.60;;;;;;5044939;28;20670;-74
2022/08/11 07:33:41;;;;;;;0.00;0.00;;;27.30;55.40;;;;;;5038833;28;20036;-74
2022/08/11 07:36:13;;;;;;;0.05;0.05;;;27.70;55.60;;;;;;5044283;28;20029;-73
2022/08/11 07:38:42;;;;;;;0.00;0.00;;;28.10;55.30;;;;;;5046437;28;20112;-73
2022/08/11 07:41:14;;;;;;;0.70;0.70;;;28.40;55.10;;;;;;5039809;28;20041;-74
2022/08/11 07:43:41;;;;;;;0.00;0.00;;;28.30;55.40;;;;;;5023839;28;20068;-74
2022/08/11 07:54:27;;;;;;;0.00;0.00;;;28.30;54.60;;;;;;5046020;28;20076;-75
2022/08/11 07:56:54;;;;;;;0.47;0.32;;;28.20;54.60;;;;;;5047326;28;20021;-76
2022/08/11 08:18:39;;;;;;;3.72;1.67;;;29.30;52.80;;;;;;5038633;28;20036;-77
2022/08/11 08:21:13;;;;;;;0.00;0.00;;;29.10;51.90;;;;;;5045004;28;20033;-75
2022/08/11 08:23:45;;;;;;;0.00;0.00;;;29.40;51.10;;;;;;5042882;28;20040;-76
2022/08/11 08:31:51;;;;;;;0.00;0.00;;;29.70;50.50;;;;;;5048286;28;20060;-77
2022/08/11 08:34:19;;;;;;;0.00;0.00;;;29.80;50.00;;;;;;5046886;28;20112;-76
2022/08/11 08:36:47;;;;;;;0.17;0.15;;;29.70;50.20;;;;;;5040069;28;20599;-76
2022/08/11 08:39:21;;;;;;;0.00;0.00;;;29.80;50.50;;;;;;5044255;28;20064;-76
2022/08/11 08:41:56;;;;;;;2.10;2.00;;;30.00;49.80;;;;;;5047195;28;20043;-77
2022/08/11 08:44:24;;;;;;;0.00;0.00;;;30.00;49.10;;;;;;5047734;28;20485;-76
2022/08/11 08:46:57;;;;;;;0.20;0.20;;;29.80;49.80;;;;;;5045021;28;20033;-75
2022/08/11 08:49:32;;;;;;;0.00;0.00;;;28.90;52.00;;;;;;5044437;28;20025;-75
2022/08/11 08:52:05;;;;;;;0.00;0.00;;;28.90;52.30;;;;;;5035427;28;20495;-75
2022/08/11 08:54:41;;;;;;;0.00;0.00;;;28.80;52.90;;;;;;5043108;28;20197;-75
2022/08/11 08:57:08;;;;;;;1.05;1.00;;;29.00;51.90;;;;;;5031252;28;20037;-75
2022/08/11 08:59:41;;;;;;;0.00;0.00;;;29.00;51.40;;;;;;5046520;28;20471;-75
2022/08/11 09:02:11;;;;;;;0.10;0.10;;;28.70;51.60;;;;;;5035466;28;20416;-74
2022/08/11 09:04:40;;;;;;;0.00;0.00;;;28.80;51.60;;;;;;5037726;28;20380;-75
2022/08/11 09:07:13;;;;;;;0.00;0.00;;;28.90;51.30;;;;;;5041356;28;20083;-74
2022/08/11 09:09:55;;;;;;;0.00;0.00;;;29.00;50.70;;;;;;5039767;28;20033;-75
2022/08/11 09:12:27;;;;;;;0.00;0.00;;;29.00;55.40;;;;;;5033467;28;20926;-76
2022/08/11 09:15:02;;;;;;;0.00;0.00;;;28.50;56.20;;;;;;5036736;28;20041;-75
2022/08/11 09:17:40;;;;;;;0.00;0.00;;;27.60;57.10;;;;;;5046543;28;20044;-74
2022/08/11 09:20:13;;;;;;;0.10;0.10;;;27.70;62.90;;;;;;5049289;28;20091;-76
2022/08/11 09:28:15;;;;;;;0.00;0.00;;;28.00;57.70;;;;;;5039028;28;20521;-75
2022/08/11 09:30:59;;;;;;;0.00;0.00;;;28.30;56.80;;;;;;5036244;28;20041;-76
2022/08/11 09:33:28;;;;;;;0.13;0.13;;;28.60;54.60;;;;;;5043120;28;20029;-77
2022/08/11 09:35:55;;;;;;;0.00;0.00;;;28.90;52.60;;;;;;5039902;28;20502;-76
2022/08/11 09:41:10;;;;;;;0.20;0.20;;;29.40;51.20;;;;;;5035807;28;20099;-75
2022/08/11 09:46:28;;;;;;;5.70;5.38;;;29.20;49.30;;;;;;5051835;28;20052;-75
2022/08/11 09:48:58;;;;;;;0.00;0.00;;;29.40;49.10;;;;;;5040904;28;20079;-75
2022/08/11 09:51:27;;;;;;;0.00;0.00;;;29.60;48.00;;;;;;5045847;28;20191;-76
2022/08/11 09:53:54;;;;;;;0.47;0.47;;;29.70;47.00;;;;;;5051029;28;20029;-75
2022/08/11 09:59:08;;;;;;;0.00;0.00;;;28.80;48.80;;;;;;5050577;28;20040;-75
2022/08/11 10:01:47;;;;;;;0.00;0.00;;;28.50;50.30;;;;;;5049203;28;20386;-75
2022/08/11 10:04:22;;;;;;;0.20;0.20;;;29.10;48.50;;;;;;5045529;28;20051;-75
2022/08/11 10:07:09;;;;;;;0.00;0.00;;;29.50;47.00;;;;;;5032579;28;20365;-74
2022/08/11 10:09:40;;;;;;;0.08;0.08;;;29.60;46.90;;;;;;5046836;28;20043;-76
2022/08/11 10:12:21;;;;;;;1.65;1.35;;;29.80;45.60;;;;;;5035569;28;20483;-76
2022/08/11 10:18:40;;;;;;;0.00;0.00;;;29.60;46.10;;;;;;5044360;28;20116;-77
2022/08/11 10:20:31;;;;;;;0.15;0.15;;;29.30;47.20;;;;;;5046848;28;20120;-74
2022/08/11 10:28:34;;;;;;;1.27;1.27;;;29.20;47.00;;;;;;4992737;28;20047;-76
2022/08/11 10:34:02;;;;;;;0.05;0.05;;;29.20;46.80;;;;;;5042645;28;20060;-75
2022/08/11 10:36:34;;;;;;;0.00;0.00;;;29.30;48.20;;;;;;5047261;28;20021;-75
2022/08/11 10:39:03;;;;;;;0.00;0.00;;;29.00;46.70;;;;;;5037768;28;20057;-75
2022/08/11 10:44:18;;;;;;;0.30;0.20;;;28.80;47.00;;;;;;5032911;28;20053;-75
2022/08/11 10:49:31;;;;;;;0.00;0.00;;;28.60;47.90;;;;;;5035551;28;20048;-77
2022/08/11 11:00:17;;;;;;;0.17;0.17;;;28.40;48.60;;;;;;5036001;28;20044;-75
2022/08/11 11:02:44;;;;;;;0.00;0.00;;;28.10;49.60;;;;;;5050191;28;20072;-75
2022/08/11 11:05:25;;;;;;;0.00;0.00;;;27.90;50.30;;;;;;5040203;28;20107;-76
2022/08/11 11:10:57;;;;;;;0.00;0.00;;;27.20;51.70;;;;;;5034569;28;20525;-74
2022/08/11 11:19:17;;;;;;;0.00;0.00;;;27.40;56.10;;;;;;5033104;28;20398;-76
2022/08/11 11:21:47;;;;;;;0.00;0.00;;;27.60;55.00;;;;;;5043938;28;20041;-75
2022/08/11 11:24:52;;;;;;;1.00;0.90;;;27.60;55.10;;;;;;5042768;28;20495;-76
2022/08/11 11:27:35;;;;;;;0.63;0.50;;;27.50;55.30;;;;;;4962092;28;20583;-76
2022/08/11 11:30:07;;;;;;;0.00;0.00;;;27.10;56.20;;;;;;5034917;28;20037;-75
2022/08/11 11:32:43;;;;;;;0.00;0.00;;;26.70;57.90;;;;;;5045935;28;20033;-77
2022/08/11 11:35:09;;;;;;;0.15;0.15;;;26.90;57.40;;;;;;5045123;28;20036;-73
2022/08/11 11:37:37;;;;;;;0.65;0.28;;;26.90;56.30;;;;;;5042203;28;20044;-76
2022/08/11 11:40:20;;;;;;;0.20;0.15;;;26.90;55.50;;;;;;5042887;28;20064;-75
2022/08/11 11:42:49;;;;;;;0.00;0.00;;;26.80;55.90;;;;;;5041744;28;20087;-75
2022/08/11 11:45:18;;;;;;;0.00;0.00;;;26.90;55.80;;;;;;5047805;28;20342;-75
2022/08/11 11:47:45;;;;;;;0.00;0.00;;;26.90;54.10;;;;;;5035306;28;20117;-75
2022/08/11 11:50:12;;;;;;;0.00;0.00;;;26.80;53.70;;;;;;5038995;28;20112;-75
2022/08/11 11:52:40;;;;;;;0.00;0.00;;;26.80;52.70;;;;;;5041411;28;20060;-76
2022/08/11 11:55:07;;;;;;;0.00;0.00;;;26.80;52.40;;;;;;5044551;28;20028;-76
2022/08/11 12:03:09;;;;;;;0.20;0.00;;;26.80;51.60;;;;;;5048605;28;20551;-75
2022/08/11 12:05:37;;;;;;;0.00;0.00;;;26.80;51.60;;;;;;5044945;28;20029;-75
2022/08/11 12:08:16;;;;;;;0.00;0.00;;;26.80;51.70;;;;;;5051769;28;20107;-76
2022/08/11 12:13:54;;;;;;;0.00;0.00;;;26.80;51.60;;;;;;5046344;28;20036;-75
2022/08/11 12:16:22;;;;;;;0.00;0.00;;;26.70;52.30;;;;;;5048523;28;20068;-76
2022/08/11 12:18:57;;;;;;;0.00;0.00;;;26.70;52.90;;;;;;5048766;28;20425;-75
2022/08/11 12:21:24;;;;;;;0.00;0.00;;;26.70;53.60;;;;;;5052725;28;20055;-74
2022/08/11 12:29:26;;;;;;;0.20;0.10;;;26.90;52.40;;;;;;5040797;28;20079;-76
2022/08/11 12:31:53;;;;;;;0.00;0.00;;;26.90;52.90;;;;;;5043187;28;20033;-76
2022/08/11 12:34:23;;;;;;;0.00;0.00;;;27.00;51.60;;;;;;5044418;28;20044;-75
2022/08/11 12:36:59;;;;;;;0.00;0.00;;;27.00;51.60;;;;;;5057025;28;20048;-75
2022/08/11 12:53:27;;;;;;;0.00;0.00;;;27.00;51.20;;;;;;5050614;28;20080;-76
2022/08/11 12:58:49;;;;;;;0.00;0.00;;;26.90;51.00;;;;;;5047675;28;20083;-75
2022/08/11 13:06:50;;;;;;;0.00;0.00;;;26.60;52.30;;;;;;5047595;28;20148;-74
2022/08/11 13:09:17;;;;;;;0.00;0.00;;;26.80;52.10;;;;;;5030451;28;20046;-75
2022/08/11 13:14:31;;;;;;;0.00;0.00;;;26.60;52.80;;;;;;5053388;28;20032;-74
2022/08/11 13:19:45;;;;;;;0.00;0.00;;;26.40;53.60;;;;;;5041909;28;20535;-74
2022/08/11 13:22:15;;;;;;;0.00;0.00;;;26.40;52.90;;;;;;5046936;28;20060;-75
2022/08/11 13:24:41;;;;;;;0.17;0.17;;;26.50;51.60;;;;;;5040732;28;20049;-73
2022/08/11 13:27:11;;;;;;;0.00;0.00;;;26.50;53.10;;;;;;5043624;28;20029;-74
2022/08/11 13:29:40;;;;;;;0.00;0.00;;;26.40;52.90;;;;;;5044216;28;20029;-74
2022/08/11 13:32:07;;;;;;;0.00;0.00;;;26.40;53.30;;;;;;5043980;28;20493;-74
2022/08/11 13:34:40;;;;;;;0.00;0.00;;;26.10;54.30;;;;;;5054397;28;20459;-74
2022/08/11 13:37:08;;;;;;;0.00;0.00;;;26.10;53.80;;;;;;5048113;28;20071;-75
2022/08/11 13:39:36;;;;;;;0.00;0.00;;;26.00;54.00;;;;;;5046298;28;20033;-74
2022/08/11 13:42:04;;;;;;;0.00;0.00;;;25.90;54.70;;;;;;5046861;28;20167;-74
2022/08/11 13:44:37;;;;;;;0.20;0.20;;;25.80;55.00;;;;;;5046818;28;20033;-73
2022/08/11 13:47:06;;;;;;;0.00;0.00;;;25.80;55.60;;;;;;5051637;28;20083;-74
2022/08/11 13:49:37;;;;;;;0.00;0.00;;;25.70;56.10;;;;;;5053420;28;20029;-74
2022/08/11 13:52:06;;;;;;;0.00;0.00;;;25.80;55.90;;;;;;5053330;28;20123;-75
2022/08/11 13:54:37;;;;;;;0.00;0.00;;;25.50;55.90;;;;;;5051201;28;20024;-75
2022/08/11 13:57:06;;;;;;;0.00;0.00;;;25.30;56.30;;;;;;5044618;28;20051;-75
2022/08/11 13:59:34;;;;;;;0.00;0.00;;;25.30;56.40;;;;;;5045450;28;20087;-75
2022/08/11 14:02:07;;;;;;;0.00;0.00;;;25.20;56.70;;;;;;5043220;28;20029;-79
2022/08/11 14:04:56;;;;;;;0.10;0.10;;;25.10;56.70;;;;;;5036032;28;20368;-78
2022/08/11 14:07:32;;;;;;;0.00;0.00;;;24.90;57.20;;;;;;5047363;28;20037;-78
2022/08/11 14:15:56;;;;;;;0.00;0.00;;;24.60;59.10;;;;;;5044466;28;20132;-75
2022/08/11 14:18:27;;;;;;;0.00;0.00;;;24.50;59.90;;;;;;5053058;28;20086;-75
2022/08/11 14:23:46;;;;;;;0.10;0.10;;;24.40;59.80;;;;;;5038017;28;20040;-74
2022/08/11 14:26:29;;;;;;;0.00;0.00;;;24.30;60.30;;;;;;5033970;28;20483;-74
2022/08/11 14:29:10;;;;;;;0.00;0.00;;;24.20;60.50;;;;;;5033673;28;20498;-75
2022/08/11 14:31:44;;;;;;;0.00;0.00;;;24.30;60.50;;;;;;5045945;28;20455;-75
2022/08/11 14:34:13;;;;;;;0.00;0.00;;;24.30;60.10;;;;;;5046462;28;20041;-75
2022/08/11 14:37:01;;;;;;;0.00;0.00;;;24.30;61.00;;;;;;5051660;28;20522;-75
2022/08/11 14:39:34;;;;;;;0.00;0.00;;;24.20;61.30;;;;;;5049022;28;20443;-76
2022/08/11 14:47:45;;;;;;;0.00;0.00;;;24.20;61.10;;;;;;5048145;28;20494;-75
2022/08/11 14:50:17;;;;;;;0.00;0.00;;;24.00;61.80;;;;;;5039339;28;20037;-76
2022/08/11 14:52:50;;;;;;;0.00;0.00;;;24.00;62.00;;;;;;5049978;28;20438;-75
2022/08/11 14:58:04;;;;;;;0.00;0.00;;;23.90;62.60;;;;;;5051069;28;20151;-75
2022/08/11 15:00:32;;;;;;;0.00;0.00;;;23.80;62.70;;;;;;5045041;28;20037;-75
2022/08/11 15:03:09;;;;;;;0.00;0.00;;;23.90;62.90;;;;;;5053032;28;20334;-73
2022/08/11 15:05:38;;;;;;;0.00;0.00;;;23.70;63.00;;;;;;5043235;28;20025;-75
2022/08/11 15:08:05;;;;;;;0.00;0.00;;;23.50;62.90;;;;;;5052803;28;20128;-75
2022/08/11 15:10:32;;;;;;;0.00;0.00;;;23.50;62.80;;;;;;5046682;28;20041;-75
2022/08/11 15:13:00;;;;;;;0.00;0.00;;;23.60;63.60;;;;;;5046994;28;20035;-72
2022/08/11 15:18:16;;;;;;;0.00;0.00;;;23.70;63.70;;;;;;5045300;28;20506;-74
2022/08/11 15:26:14;;;;;;;0.00;0.00;;;23.80;63.90;;;;;;5052514;28;20103;-74
2022/08/11 15:37:26;;;;;;;0.00;0.00;;;24.20;62.10;;;;;;5041311;28;20059;-74
2022/08/11 15:46:16;;;;;;;0.00;0.00;;;24.30;60.30;;;;;;5049526;28;20067;-75
2022/08/11 15:49:01;;;;;;;0.00;0.00;;;24.10;61.00;;;;;;5055504;28;20068;-74
2022/08/11 15:51:43;;;;;;;0.00;0.00;;;24.20;60.90;;;;;;5048005;28;20040;-75
2022/08/11 15:54:16;;;;;;;0.00;0.00;;;24.20;61.50;;;;;;5053840;28;20025;-75
2022/08/11 15:56:45;;;;;;;0.00;0.00;;;24.20;61.80;;;;;;5050259;28;20029;-76
2022/08/11 16:04:46;;;;;;;0.00;0.00;;;23.90;63.50;;;;;;5038555;28;20033;-75
2022/08/11 16:07:26;;;;;;;0.00;0.00;;;23.80;64.40;;;;;;5055965;28;20033;-75
2022/08/11 16:09:54;;;;;;;0.00;0.00;;;23.80;63.70;;;;;;5047489;28;20112;-75
2022/08/11 16:12:26;;;;;;;0.00;0.00;;;23.70;64.60;;;;;;5054782;28;20052;-75
2022/08/11 16:17:44;;;;;;;0.00;0.00;;;23.80;65.60;;;;;;5035640;28;20044;-75
2022/08/11 16:20:18;;;;;;;2.17;2.08;;;23.90;64.60;;;;;;5033707;28;20119;-75
2022/08/11 16:22:46;;;;;;;0.00;0.00;;;24.10;63.80;;;;;;5033004;28;20387;-76
2022/08/11 16:25:18;;;;;;;0.00;0.00;;;24.00;64.10;;;;;;5036464;28;20029;-75
2022/08/11 16:28:04;;;;;;;0.00;0.00;;;24.00;64.50;;;;;;5039304;28;20029;-75
2022/08/11 16:30:34;;;;;;;0.00;0.00;;;24.00;65.30;;;;;;5032658;28;20471;-75
2022/08/11 16:33:04;;;;;;;0.00;0.00;;;24.00;65.90;;;;;;5034367;28;20483;-76
2022/08/11 16:38:34;;;;;;;0.00;0.00;;;24.10;65.50;;;;;;5036488;28;20029;-74
2022/08/11 16:41:08;;;;;;;0.00;0.00;;;24.20;64.40;;;;;;5028809;28;20129;-75
2022/08/11 16:49:34;;;;;;;0.10;0.10;;;23.70;65.40;;;;;;5021815;28;20048;-74
2022/08/11 16:52:06;;;;;;;0.00;0.00;;;23.70;65.80;;;;;;5026310;28;20492;-74
2022/08/11 16:54:34;;;;;;;0.00;0.00;;;23.50;66.00;;;;;;5038874;28;20045;-74
2022/08/11 16:59:51;;;;;;;0.00;0.00;;;23.40;67.10;;;;;;5030191;28;20037;-75
2022/08/11 17:14:06;;;;;;;0.00;0.00;;;23.40;63.40;;;;;;5031516;28;20045;-75
2022/08/11 17:16:35;;;;;;;4.63;4.40;;;23.40;63.50;;;;;;5038370;28;20480;-76
2022/08/11 17:19:24;;;;;;;0.00;0.00;;;23.40;63.30;;;;;;5036108;28;20041;-74
2022/08/11 17:24:40;;;;;;;2.72;2.08;;;23.40;62.70;;;;;;5033009;28;20084;-75
2022/08/11 17:27:07;;;;;;;0.65;0.65;;;23.30;62.70;;;;;;5029767;28;20041;-74
2022/08/11 17:29:43;;;;;;;0.00;0.00;;;23.20;62.80;;;;;;5030819;28;20491;-73
2022/08/11 17:37:46;;;;;;;0.00;0.00;;;22.80;64.60;;;;;;5025388;28;20387;-76
2022/08/11 17:40:23;;;;;;;0.00;0.00;;;22.80;65.60;;;;;;5025046;28;20052;-73
2022/08/11 17:48:31;;;;;;;0.00;0.00;;;23.00;65.00;;;;;;5030740;28;20040;-73
2022/08/11 17:51:11;;;;;;;0.00;0.00;;;23.00;65.20;;;;;;5029256;28;20488;-73
2022/08/11 18:04:50;;;;;;;0.00;0.00;;;22.60;66.30;;;;;;5030591;28;20048;-75
